Time;durP1;ratioP1;P1;durP2;ratioP2;P2;SDS_P1;SDS_P2;PMS_P1;PMS_P2;Temp;Humidity;BMP_temperature;BMP_pressure;BME280_temperature;BME280_humidity;BME280_pressure;Samples;Min_cycle;Max_cycle;Signal;HPM_P1;HPM_P2
2021/06/26 00:00:57;;;;;;;;;;;;;;;13.59;66.51;101558.56;3553156;40;20053;-79
2021/06/26 00:03:26;;;;;;;5.15;1.65;;;;;;;13.53;67.75;101549.03;3556400;40;19938;-79
2021/06/26 00:05:54;;;;;;;5.07;2.15;;;;;;;13.55;68.56;101563.00;3557978;40;20061;-79
2021/06/26 00:08:23;;;;;;;;;;;;;;;13.56;66.51;101551.59;3558061;40;20579;-79
2021/06/26 00:10:51;;;;;;;4.88;1.63;;;;;;;13.53;68.23;101561.31;3566892;40;19945;-79
2021/06/26 00:13:23;;;;;;;7.05;1.67;;;;;;;13.53;68.04;101564.78;3557500;40;20058;-79
2021/06/26 00:15:50;;;;;;;6.38;1.63;;;;;;;13.49;68.27;101557.91;3551214;40;20331;-79
2021/06/26 00:18:18;;;;;;;6.40;1.40;;;;;;;13.48;68.53;101548.28;3567864;40;20053;-79
2021/06/26 00:20:45;;;;;;;5.47;1.88;;;;;;;13.41;68.37;101549.31;3556711;40;20083;-78
2021/06/26 00:23:13;;;;;;;2.30;0.90;;;;;;;13.44;68.36;101554.50;3566675;40;20410;-78
2021/06/26 00:25:41;;;;;;;3.92;1.20;;;;;;;13.41;68.39;101549.31;3554831;40;20317;-79
2021/06/26 00:28:15;;;;;;;;;;;;;;;13.47;66.97;101554.41;3559408;40;20041;-79
2021/06/26 00:30:42;;;;;;;2.63;0.93;;;;;;;13.27;68.12;101530.38;3559414;40;19962;-78
2021/06/26 00:33:11;;;;;;;4.33;1.20;;;;;;;13.35;68.02;101554.69;3541680;40;20049;-78
2021/06/26 00:35:38;;;;;;;4.15;1.30;;;;;;;13.28;68.40;101548.72;3567926;40;21433;-78
2021/06/26 00:38:09;;;;;;;3.42;1.05;;;;;;;13.30;68.11;101556.53;3545766;40;20844;-78
2021/06/26 00:40:36;;;;;;;3.28;1.05;;;;;;;13.23;68.70;101547.94;3547087;40;20972;-77
2021/06/26 00:43:04;;;;;;;3.95;1.30;;;;;;;13.12;68.04;101537.59;3562006;40;20053;-78
2021/06/26 00:45:36;;;;;;;5.82;1.45;;;;;;;13.19;68.17;101549.72;3547394;40;20060;-78
2021/06/26 00:48:05;;;;;;;4.55;1.42;;;;;;;13.16;68.95;101544.53;3575614;40;20063;-79
2021/06/26 00:50:34;;;;;;;4.05;1.30;;;;;;;13.09;68.94;101547.31;3562746;40;20041;-78
2021/06/26 00:53:02;;;;;;;4.45;1.25;;;;;;;13.05;69.07;101546.50;3561788;40;20041;-78
2021/06/26 00:55:35;;;;;;;6.45;1.55;;;;;;;13.05;68.87;101543.88;3560729;40;20060;-78
2021/06/26 00:58:02;;;;;;;4.68;1.25;;;;;;;13.05;69.63;101557.00;3552132;40;20066;-78
2021/06/26 01:00:30;;;;;;;3.73;1.43;;;;;;;12.99;69.39;101541.38;3561940;40;20104;-78
2021/06/26 01:02:59;;;;;;;5.38;1.85;;;;;;;13.02;70.05;101549.16;3559307;40;20098;-78
2021/06/26 01:05:27;;;;;;;3.83;1.40;;;;;;;12.99;69.39;101542.25;3556964;40;20081;-79
2021/06/26 01:07:54;;;;;;;5.05;1.60;;;;;;;13.04;69.41;101543.91;3562026;40;20085;-79
2021/06/26 01:10:27;;;;;;;3.50;1.30;;;;;;;13.10;69.34;101555.16;3549479;40;20132;-79
2021/06/26 01:12:57;;;;;;;4.50;1.90;;;;;;;13.08;69.65;101549.06;3564423;40;20108;-78
2021/06/26 01:15:26;;;;;;;2.72;1.17;;;;;;;13.11;69.71;101554.25;3555753;40;20112;-79
2021/06/26 01:17:54;;;;;;;4.38;1.48;;;;;;;13.07;69.72;101539.47;3563616;40;20783;-78
2021/06/26 01:20:25;;;;;;;3.33;1.20;;;;;;;13.15;69.66;101553.28;3558041;40;20061;-78
2021/06/26 01:22:59;;;;;;;5.03;1.25;;;;;;;13.15;69.25;101549.81;3552217;40;20507;-78
2021/06/26 01:25:29;;;;;;;3.58;1.58;;;;;;;13.16;69.69;101548.91;3563439;40;20481;-78
2021/06/26 01:27:58;;;;;;;5.05;1.63;;;;;;;13.15;69.56;101542.81;3546305;40;20045;-78
2021/06/26 01:30:35;;;;;;;8.23;1.63;;;;;;;13.20;69.01;101548.81;3573071;40;20396;-78
2021/06/26 01:33:04;;;;;;;4.00;1.20;;;;;;;13.17;69.57;101546.25;3530431;40;20568;-78
2021/06/26 01:35:32;;;;;;;3.65;0.95;;;;;;;13.18;69.55;101547.16;3550464;40;20057;-78
2021/06/26 01:38:03;;;;;;;2.80;0.85;;;;;;;13.19;69.42;101544.47;3566869;40;20089;-78
2021/06/26 01:40:31;;;;;;;3.47;1.15;;;;;;;13.18;69.59;101548.00;3560242;40;20047;-79
2021/06/26 01:43:00;;;;;;;4.53;1.30;;;;;;;13.13;69.67;101544.59;3571049;40;20049;-79
2021/06/26 01:45:28;;;;;;;2.90;1.10;;;;;;;13.13;69.69;101547.22;3563626;40;20085;-78
2021/06/26 01:47:58;;;;;;;;;;;;;;;13.19;68.21;101554.97;3580494;40;22581;-78
2021/06/26 01:50:29;;;;;;;2.15;0.60;;;;;;;13.14;69.36;101534.97;3549722;40;19962;-79
2021/06/26 01:53:02;;;;;;;2.92;1.00;;;;;;;13.13;69.49;101544.59;3564775;40;20072;-79
2021/06/26 01:55:31;;;;;;;2.90;0.90;;;;;;;13.09;69.86;101540.31;3552459;40;20076;-78
2021/06/26 01:58:01;;;;;;;3.70;1.23;;;;;;;13.13;69.97;101547.22;3553016;40;20667;-78
2021/06/26 02:00:29;;;;;;;2.40;1.25;;;;;;;13.06;69.88;101537.72;3562412;40;20096;-78
2021/06/26 02:02:57;;;;;;;2.65;1.30;;;;;;;13.10;69.81;101549.91;3563427;40;20075;-79
2021/06/26 02:05:25;;;;;;;5.00;1.00;;;;;;;13.09;69.90;101550.81;3581438;40;20481;-78
2021/06/26 02:07:53;;;;;;;2.85;1.10;;;;;;;13.10;69.99;101554.28;3578518;40;20126;-78
2021/06/26 02:10:21;;;;;;;3.22;1.27;;;;;;;13.10;70.03;101549.03;3553432;40;20046;-78
2021/06/26 02:12:53;;;;;;;1.52;0.98;;;;;;;13.06;69.55;101547.38;3562209;40;20048;-78
2021/06/26 02:15:20;;;;;;;2.13;1.02;;;;;;;13.01;69.92;101546.59;3565828;40;20453;-78
2021/06/26 02:17:47;;;;;;;1.53;0.97;;;;;;;13.00;70.06;101548.34;3572158;40;20363;-78
2021/06/26 02:20:14;;;;;;;2.55;1.10;;;;;;;12.86;70.15;101524.16;3561787;40;20047;-78
2021/06/26 02:22:43;;;;;;;2.78;1.10;;;;;;;12.97;69.91;101541.38;3570128;40;20061;-78
2021/06/26 02:25:10;;;;;;;2.00;1.02;;;;;;;12.97;70.08;101533.53;3562614;40;20082;-78
2021/06/26 02:27:37;;;;;;;3.42;1.30;;;;;;;12.97;70.14;101535.28;3564506;40;20041;-79
2021/06/26 02:30:08;;;;;;;2.80;1.05;;;;;;;12.90;69.86;101525.81;3570133;40;20045;-77
2021/06/26 02:32:35;;;;;;;2.47;1.02;;;;;;;12.93;69.91;101541.50;3556659;40;20390;-78
2021/06/26 02:35:04;;;;;;;1.70;0.93;;;;;;;12.88;70.07;101538.97;3556803;40;20059;-78
2021/06/26 02:37:31;;;;;;;5.15;1.20;;;;;;;12.89;70.19;101542.44;3555967;40;20616;-78
2021/06/26 02:39:59;;;;;;;4.10;1.38;;;;;;;12.79;70.50;101528.66;3562001;40;20349;-78
2021/06/26 02:42:31;;;;;;;3.25;1.00;;;;;;;12.80;70.27;101532.13;3555741;40;20064;-78
2021/06/26 02:44:59;;;;;;;3.17;0.90;;;;;;;12.83;70.95;101535.56;3560425;40;20493;-78
2021/06/26 02:47:26;;;;;;;;;;;;;;;12.89;69.04;101545.06;3571874;40;20045;-78
2021/06/26 02:49:53;;;;;;;0.97;0.50;;;;;;;12.77;70.79;101519.94;3561896;40;19948;-78
2021/06/26 02:52:19;;;;;;;4.63;1.02;;;;;;;12.86;71.21;101534.63;3572162;40;20093;-78
2021/06/26 02:54:46;;;;;;;2.92;1.50;;;;;;;12.85;70.99;101522.44;3575814;40;20818;-78
2021/06/26 02:57:14;;;;;;;2.75;1.05;;;;;;;12.85;71.68;101528.53;3570609;40;20054;-78
2021/06/26 02:59:44;;;;;;;2.63;1.35;;;;;;;12.90;71.35;101526.69;3556281;40;20081;-78
2021/06/26 03:02:11;;;;;;;3.88;1.10;;;;;;;12.87;71.47;101520.63;3572650;40;20096;-78
2021/06/26 03:04:40;;;;;;;5.60;1.30;;;;;;;12.93;71.40;101520.53;3574960;40;20061;-78
2021/06/26 03:07:08;;;;;;;2.72;0.95;;;;;;;12.95;71.56;101522.22;3569147;40;20327;-79
2021/06/26 03:09:35;;;;;;;2.58;1.00;;;;;;;12.99;71.57;101520.41;3572553;40;20093;-78
2021/06/26 03:12:03;;;;;;;3.00;1.33;;;;;;;12.95;71.75;101513.50;3565743;40;20046;-79
2021/06/26 03:14:30;;;;;;;1.63;0.88;;;;;;;12.99;71.77;101520.41;3588695;40;20048;-78
2021/06/26 03:17:00;;;;;;;4.55;1.65;;;;;;;13.05;71.79;101525.53;3561240;40;20061;-78
2021/06/26 03:19:33;;;;;;;3.40;1.40;;;;;;;13.07;71.37;101522.88;3558113;40;20441;-79
2021/06/26 03:22:02;;;;;;;2.50;1.02;;;;;;;13.10;71.52;101523.69;3559134;40;20072;-78
2021/06/26 03:24:31;;;;;;;1.90;0.95;;;;;;;13.14;71.53;101520.09;3565232;40;20974;-79
2021/06/26 03:26:59;;;;;;;1.88;0.80;;;;;;;13.14;71.58;101517.47;3576579;40;20056;-78
2021/06/26 03:29:27;;;;;;;5.03;1.02;;;;;;;13.22;71.63;101519.97;3555711;40;20053;-78
2021/06/26 03:31:58;;;;;;;2.00;0.80;;;;;;;13.24;71.48;101520.81;3576535;40;20327;-79
2021/06/26 03:34:31;;;;;;;2.75;1.10;;;;;;;13.24;71.24;101521.69;3570736;40;20045;-78
2021/06/26 03:36:58;;;;;;;5.53;1.02;;;;;;;13.29;71.78;101528.59;3575051;40;20065;-79
2021/06/26 03:39:26;;;;;;;2.60;0.80;;;;;;;13.32;71.55;101525.88;3577435;40;20311;-78
2021/06/26 03:41:54;;;;;;;;;;;;;;;13.43;70.00;101526.53;3561529;40;20057;-78
2021/06/26 03:44:22;;;;;;;1.80;0.80;;;;;;;13.34;71.68;101516.25;3585243;40;19941;-78
2021/06/26 03:46:50;;;;;;;;;;;;;;;13.47;69.84;101533.44;3580250;40;20059;-78
2021/06/26 03:49:19;;;;;;;3.53;1.00;;;;;;;13.45;71.08;101527.38;3583710;40;20328;-79
2021/06/26 03:51:52;;;;;;;2.58;0.82;;;;;;;13.41;70.75;101518.69;3546264;40;20502;-78
2021/06/26 03:54:22;;;;;;;2.25;0.90;;;;;;;13.48;71.10;101532.53;3562535;40;20925;-78
2021/06/26 03:56:54;;;;;;;2.25;0.77;;;;;;;13.48;70.87;101535.16;3560413;40;20190;-78
2021/06/26 03:59:22;;;;;;;2.13;0.90;;;;;;;13.50;71.30;101543.88;3557444;40;20381;-78
2021/06/26 04:01:50;;;;;;;1.95;1.00;;;;;;;13.48;71.50;101546.53;3566586;40;21346;-78
2021/06/26 04:04:20;;;;;;;3.40;0.82;;;;;;;13.49;71.25;101536.91;3565106;40;20069;-78
2021/06/26 04:06:49;;;;;;;3.40;0.80;;;;;;;13.49;71.43;101536.91;3562733;40;20093;-78
2021/06/26 04:09:41;;;;;;;1.80;0.85;;;;;;;13.61;70.61;101549.75;3556559;40;20061;-79
2021/06/26 04:12:09;;;;;;;1.70;0.82;;;;;;;13.53;71.53;101541.16;3562344;40;20060;-78
2021/06/26 04:14:36;;;;;;;2.15;0.90;;;;;;;13.56;71.57;101541.13;3572003;40;20064;-78
2021/06/26 04:17:05;;;;;;;1.63;1.00;;;;;;;13.62;71.30;101543.59;3578153;40;20080;-78
2021/06/26 04:19:34;;;;;;;2.05;0.98;;;;;;;13.63;71.42;101550.56;3566211;40;20061;-78
2021/06/26 04:22:28;;;;;;;4.05;0.90;;;;;;;13.70;70.52;101557.44;3556303;40;20045;-78
2021/06/26 04:24:55;;;;;;;0.95;0.65;;;;;;;13.63;71.27;101550.56;3569083;40;21419;-79
2021/06/26 04:27:22;;;;;;;2.03;0.65;;;;;;;13.65;71.51;101554.03;3567570;40;20101;-78
2021/06/26 04:29:48;;;;;;;2.63;0.77;;;;;;;13.65;71.50;101554.03;3553399;40;20369;-78
2021/06/26 04:32:19;;;;;;;5.32;1.33;;;;;;;13.70;71.45;101562.69;3566400;40;20368;-79
2021/06/26 04:34:51;;;;;;;4.63;0.90;;;;;;;13.74;71.16;101564.34;3573156;40;20045;-78
2021/06/26 04:37:18;;;;;;;1.55;0.75;;;;;;;13.57;71.53;101534.97;3565958;40;22173;-79
2021/06/26 04:39:49;;;;;;;1.98;0.70;;;;;;;13.74;71.46;101558.25;3555631;40;20061;-79
2021/06/26 04:42:16;;;;;;;1.98;0.82;;;;;;;13.57;71.53;101534.09;3546619;40;20060;-79
2021/06/26 04:44:44;;;;;;;2.67;0.70;;;;;;;13.79;71.35;101571.22;3550726;40;20057;-79
2021/06/26 04:47:11;;;;;;;1.65;0.55;;;;;;;13.73;71.48;101557.34;3566563;40;20271;-79
2021/06/26 04:49:40;;;;;;;1.73;0.73;;;;;;;13.75;71.57;101557.34;3560213;40;20080;-79
2021/06/26 04:52:12;;;;;;;1.50;0.80;;;;;;;13.74;71.31;101550.38;3579155;40;20315;-78
2021/06/26 04:54:39;;;;;;;1.40;0.65;;;;;;;13.85;71.62;101574.59;3556724;40;20065;-79
2021/06/26 04:57:06;;;;;;;4.77;0.70;;;;;;;13.83;71.48;101567.66;3555437;40;20042;-79
2021/06/26 04:59:33;;;;;;;1.25;0.63;;;;;;;13.90;71.57;101574.50;3562665;40;20268;-79
2021/06/26 05:02:02;;;;;;;1.60;0.60;;;;;;;13.88;71.57;101563.16;3559855;40;20589;-78
2021/06/26 05:04:30;;;;;;;1.02;0.47;;;;;;;13.89;71.51;101572.75;3572191;40;20480;-79
2021/06/26 05:06:58;;;;;;;1.67;0.50;;;;;;;13.91;71.62;101574.47;3571604;40;20075;-79
2021/06/26 05:09:27;;;;;;;;;;;;;;;14.02;70.09;101579.47;3583569;40;20048;-78
2021/06/26 05:12:02;;;;;;;1.27;0.50;;;;;;;14.02;70.88;101579.47;3560490;40;20356;-78
2021/06/26 05:14:30;;;;;;;3.90;0.77;;;;;;;13.97;71.31;101571.69;3542748;40;20078;-78
2021/06/26 05:17:03;;;;;;;1.70;0.60;;;;;;;14.06;71.03;101575.88;3542432;40;20078;-78
2021/06/26 05:19:32;;;;;;;2.95;0.50;;;;;;;14.01;71.45;101567.25;3561451;40;20057;-78
2021/06/26 05:22:00;;;;;;;1.15;0.52;;;;;;;14.10;71.26;101582.78;3557350;40;20073;-79
2021/06/26 05:24:28;;;;;;;4.43;0.60;;;;;;;14.11;71.02;101578.41;3577947;40;20065;-78
2021/06/26 05:26:55;;;;;;;1.42;0.80;;;;;;;14.11;70.59;101579.25;3575770;40;20076;-78
2021/06/26 05:29:22;;;;;;;1.20;0.50;;;;;;;14.15;70.46;101585.31;3553357;40;20081;-78
2021/06/26 05:31:54;;;;;;;1.77;0.52;;;;;;;14.20;70.40;101594.81;3565427;40;20041;-78
2021/06/26 05:34:25;;;;;;;0.77;0.50;;;;;;;14.07;70.42;101567.09;3547499;40;20465;-78
2021/06/26 05:36:51;;;;;;;2.25;0.63;;;;;;;14.14;70.24;101584.47;3572320;40;20074;-79
2021/06/26 05:39:18;;;;;;;1.20;0.70;;;;;;;14.18;70.09;101593.97;3558847;40;20069;-79
2021/06/26 05:41:48;;;;;;;0.75;0.40;;;;;;;14.18;70.11;101591.34;3552329;40;20711;-79
2021/06/26 05:44:16;;;;;;;3.53;0.80;;;;;;;14.22;69.72;101593.00;3574316;40;20495;-79
2021/06/26 05:46:58;;;;;;;2.05;0.80;;;;;;;14.27;69.47;101599.00;3549715;40;20042;-79
2021/06/26 05:49:27;;;;;;;2.95;0.70;;;;;;;14.28;69.30;101608.63;3555414;40;20395;-79
2021/06/26 05:51:54;;;;;;;1.90;0.68;;;;;;;14.30;69.41;101610.38;3543683;40;20057;-79
2021/06/26 05:54:22;;;;;;;1.58;0.63;;;;;;;14.24;69.51;101596.47;3581767;40;20052;-78
2021/06/26 05:56:49;;;;;;;1.10;0.63;;;;;;;14.27;69.32;101599.00;3566608;40;20044;-78
2021/06/26 05:59:20;;;;;;;1.03;0.57;;;;;;;14.34;69.21;101607.59;3553466;40;20054;-79
2021/06/26 06:01:47;;;;;;;1.33;0.57;;;;;;;14.27;68.92;101606.91;3568074;40;20079;-79
2021/06/26 06:04:15;;;;;;;2.83;1.13;;;;;;;14.30;68.55;101605.13;3558021;40;20060;-79
2021/06/26 06:07:10;;;;;;;4.95;0.98;;;;;;;14.37;68.27;101618.06;3560180;40;20089;-79
2021/06/26 06:09:38;;;;;;;2.72;1.20;;;;;;;14.28;68.50;101602.50;3567096;40;20783;-79
2021/06/26 06:12:05;;;;;;;3.30;1.27;;;;;;;14.30;68.07;101618.25;3564692;40;20069;-78
2021/06/26 06:14:34;;;;;;;3.20;1.30;;;;;;;14.30;68.09;101611.22;3570546;40;20386;-79
2021/06/26 06:17:07;;;;;;;2.67;1.20;;;;;;;14.31;68.24;101609.47;3568013;40;20065;-79
2021/06/26 06:19:34;;;;;;;3.67;1.40;;;;;;;14.25;68.19;101613.97;3554997;40;20081;-78
2021/06/26 06:22:08;;;;;;;5.47;2.20;;;;;;;14.32;67.78;101619.06;3574531;40;20484;-78
2021/06/26 06:24:36;;;;;;;4.47;1.90;;;;;;;14.32;67.72;101626.94;3564554;40;20272;-78
2021/06/26 06:27:04;;;;;;;4.18;1.58;;;;;;;14.32;67.75;101616.44;3558047;40;20378;-79
2021/06/26 06:29:31;;;;;;;4.85;1.52;;;;;;;14.22;67.90;101603.50;3552052;40;20484;-78
2021/06/26 06:32:26;;;;;;;4.20;1.73;;;;;;;14.37;67.64;101620.69;3574113;40;20774;-78
2021/06/26 06:34:56;;;;;;;5.05;1.60;;;;;;;14.30;67.84;101605.97;3576033;40;20157;-78
2021/06/26 06:37:24;;;;;;;4.38;1.40;;;;;;;14.34;68.10;101622.50;3564585;40;20057;-79
2021/06/26 06:39:55;;;;;;;5.75;1.23;;;;;;;14.36;68.07;101615.47;3575072;40;20054;-78
2021/06/26 06:42:23;;;;;;;3.78;1.30;;;;;;;14.31;68.01;101609.47;3562250;40;20085;-79
2021/06/26 06:44:52;;;;;;;;;;;;;;;14.47;67.88;101623.94;3562743;40;20073;-78
2021/06/26 06:47:20;;;;;;;2.00;0.85;;;;;;;14.41;67.97;101616.22;3561185;40;19969;-79
2021/06/26 06:49:53;;;;;;;2.28;0.85;;;;;;;14.46;67.81;101611.72;3554987;40;20045;-79
2021/06/26 06:52:21;;;;;;;7.85;1.17;;;;;;;14.42;67.84;101612.69;3566095;40;20057;-79
2021/06/26 06:54:49;;;;;;;2.08;0.90;;;;;;;14.46;68.00;101632.75;3557077;40;20045;-78
2021/06/26 06:57:23;;;;;;;1.73;0.90;;;;;;;14.48;67.93;101625.72;3563762;40;20104;-79
2021/06/26 06:59:52;;;;;;;1.20;0.68;;;;;;;14.49;68.18;101624.81;3549174;40;20077;-78
2021/06/26 07:02:21;;;;;;;2.78;0.98;;;;;;;14.50;68.53;101618.66;3562483;40;20415;-78
2021/06/26 07:04:49;;;;;;;2.70;0.90;;;;;;;14.57;68.45;101641.25;3570909;40;20331;-79
2021/06/26 07:07:21;;;;;;;1.67;0.65;;;;;;;14.55;68.34;101611.53;3551844;40;20056;-78
2021/06/26 07:09:56;;;;;;;1.90;0.90;;;;;;;14.70;68.34;101626.94;3554612;40;20049;-78
2021/06/26 07:12:28;;;;;;;1.10;0.60;;;;;;;14.77;68.54;101631.13;3579659;40;20056;-78
2021/06/26 07:15:05;;;;;;;3.33;0.80;;;;;;;14.85;68.36;101635.31;3554538;40;20058;-78
2021/06/26 07:17:32;;;;;;;3.20;0.80;;;;;;;14.83;68.42;101632.72;3554734;40;20076;-78
2021/06/26 07:20:00;;;;;;;2.00;0.68;;;;;;;14.97;68.51;101640.28;3568034;40;20057;-79
2021/06/26 07:22:27;;;;;;;0.95;0.43;;;;;;;14.95;68.03;101628.91;3578925;40;20033;-78
2021/06/26 07:24:56;;;;;;;1.48;0.50;;;;;;;15.11;67.57;101632.88;3579051;40;20044;-79
2021/06/26 07:27:30;;;;;;;1.05;0.50;;;;;;;15.15;67.23;101631.88;3575889;40;20677;-79
2021/06/26 07:29:56;;;;;;;0.95;0.38;;;;;;;15.12;66.75;101620.59;3565819;40;20053;-79
2021/06/26 07:32:27;;;;;;;3.30;0.45;;;;;;;15.23;66.69;101632.53;3565568;40;20924;-79
2021/06/26 07:34:56;;;;;;;3.00;0.50;;;;;;;15.30;66.34;101636.72;3568903;40;20075;-78
2021/06/26 07:37:24;;;;;;;2.13;0.60;;;;;;;15.32;66.70;101642.81;3567349;40;20064;-78
2021/06/26 07:39:50;;;;;;;0.52;0.30;;;;;;;15.32;66.18;101627.03;3569739;40;20400;-79
2021/06/26 07:42:29;;;;;;;1.17;0.50;;;;;;;15.48;66.56;101642.41;3547779;40;20468;-79
2021/06/26 07:44:56;;;;;;;2.22;0.50;;;;;;;15.47;66.32;101640.69;3542484;40;21523;-79
2021/06/26 07:47:26;;;;;;;1.30;0.40;;;;;;;15.56;66.64;101635.13;3561616;40;20057;-78
2021/06/26 07:49:53;;;;;;;1.98;0.40;;;;;;;15.61;66.03;101641.13;3559361;40;20064;-79
2021/06/26 07:52:19;;;;;;;2.70;0.70;;;;;;;15.72;66.16;101641.75;3554595;40;21279;-79
2021/06/26 07:54:52;;;;;;;1.60;0.50;;;;;;;15.82;65.99;101640.56;3554322;40;20342;-79
2021/06/26 07:57:22;;;;;;;4.60;0.70;;;;;;;15.89;65.94;101632.47;3555885;40;20196;-78
2021/06/26 07:59:52;;;;;;;0.63;0.30;;;;;;;15.96;65.68;101628.72;3555660;40;21137;-79
2021/06/26 08:02:20;;;;;;;1.40;0.50;;;;;;;15.97;65.17;101622.59;3557797;40;20046;-79
2021/06/26 08:04:47;;;;;;;2.00;0.43;;;;;;;16.12;64.71;101624.75;3560725;40;20513;-79
2021/06/26 08:07:15;;;;;;;1.00;0.40;;;;;;;16.25;64.73;101626.06;3556728;40;20044;-79
2021/06/26 08:09:41;;;;;;;0.77;0.40;;;;;;;16.41;65.20;101641.41;3561737;40;20891;-79
2021/06/26 08:12:15;;;;;;;3.50;0.60;;;;;;;16.57;65.10;101650.53;3567185;40;20050;-78
2021/06/26 08:14:42;;;;;;;1.30;0.40;;;;;;;16.67;63.14;101649.31;3563488;40;20086;-79
2021/06/26 08:17:11;;;;;;;1.58;0.38;;;;;;;16.77;62.58;101653.41;3570380;40;20052;-79
2021/06/26 08:19:47;;;;;;;4.57;0.45;;;;;;;16.83;63.14;101645.31;3559847;40;20097;-79
2021/06/26 08:22:14;;;;;;;2.03;0.40;;;;;;;16.81;62.73;101641.00;3559100;40;20064;-79
2021/06/26 08:24:44;;;;;;;2.57;0.30;;;;;;;16.91;63.00;101645.03;3576137;40;20114;-79
2021/06/26 08:27:11;;;;;;;1.60;0.60;;;;;;;16.83;61.84;101650.59;3565917;40;20061;-79
2021/06/26 08:29:43;;;;;;;1.50;0.40;;;;;;;16.93;62.17;101656.41;3574937;40;20085;-79
2021/06/26 08:32:14;;;;;;;0.90;0.40;;;;;;;16.91;62.18;101650.31;3555935;40;20080;-79
2021/06/26 08:34:43;;;;;;;0.47;0.30;;;;;;;16.91;61.58;101652.94;3576878;40;20128;-79
2021/06/26 08:37:31;;;;;;;3.90;0.50;;;;;;;16.92;61.87;101653.81;3554236;40;20123;-78
2021/06/26 08:40:24;;;;;;;0.65;0.45;;;;;;;17.00;62.95;101651.78;3563167;40;20295;-79
2021/06/26 08:42:57;;;;;;;1.48;0.35;;;;;;;16.96;62.50;101655.44;3542627;40;20070;-79
2021/06/26 08:45:24;;;;;;;0.80;0.40;;;;;;;16.94;61.62;101658.13;3545518;40;20098;-78
2021/06/26 08:47:54;;;;;;;2.23;0.40;;;;;;;16.98;61.56;101654.50;3552459;40;20058;-79
2021/06/26 08:50:28;;;;;;;3.83;0.55;;;;;;;16.92;61.77;101645.91;3542249;40;20269;-78
2021/06/26 08:53:19;;;;;;;2.08;0.50;;;;;;;17.03;62.43;101662.22;3537955;40;20574;-78
2021/06/26 08:55:52;;;;;;;1.75;0.45;;;;;;;16.98;62.20;101658.88;3548616;40;20063;-78
2021/06/26 08:58:21;;;;;;;1.88;0.50;;;;;;;16.92;61.80;101653.81;3541879;40;22643;-78
2021/06/26 09:00:54;;;;;;;1.08;0.40;;;;;;;17.05;62.24;101673.59;3536539;40;20168;-78
2021/06/26 09:03:24;;;;;;;3.80;0.57;;;;;;;17.05;62.16;101677.09;3538768;40;20308;-78
2021/06/26 09:05:51;;;;;;;0.40;0.30;;;;;;;17.06;60.94;101670.91;3539084;40;20086;-79
2021/06/26 09:08:22;;;;;;;1.23;0.43;;;;;;;17.16;61.45;101676.72;3548355;40;20104;-79
2021/06/26 09:10:56;;;;;;;2.60;0.60;;;;;;;17.22;61.40;101676.50;3536850;40;20077;-79
2021/06/26 09:13:32;;;;;;;1.40;0.50;;;;;;;17.29;61.38;101679.81;3541066;40;20061;-78
2021/06/26 09:16:11;;;;;;;5.25;0.88;;;;;;;17.29;61.10;101670.13;3545055;40;20086;-79
2021/06/26 09:18:43;;;;;;;1.83;0.40;;;;;;;17.34;60.99;101675.25;3544975;40;20070;-78
2021/06/26 09:21:31;;;;;;;2.80;0.95;;;;;;;17.34;61.00;101678.75;3552945;40;20050;-79
2021/06/26 09:24:01;;;;;;;;;;;;;;;17.44;62.27;101673.13;3545909;40;20457;-78
2021/06/26 09:26:28;;;;;;;1.42;0.35;;;;;;;17.30;60.95;101657.78;3557815;40;19969;-79
2021/06/26 09:29:16;;;;;;;1.08;0.30;;;;;;;17.42;61.94;101664.38;3555401;40;20080;-79
2021/06/26 09:31:52;;;;;;;1.42;0.40;;;;;;;17.50;61.36;101673.78;3544250;40;20066;-79
2021/06/26 09:34:22;;;;;;;3.60;1.20;;;;;;;17.51;60.80;101669.34;3542212;40;20068;-78
2021/06/26 09:37:03;;;;;;;2.17;0.60;;;;;;;17.60;61.48;101674.31;3545915;40;20058;-79
2021/06/26 09:39:43;;;;;;;2.22;0.70;;;;;;;17.62;60.88;101665.38;3559889;40;20068;-79
2021/06/26 09:42:27;;;;;;;1.52;0.47;;;;;;;17.68;60.81;101666.09;3566426;40;20093;-79
2021/06/26 09:44:56;;;;;;;3.10;0.68;;;;;;;17.65;60.63;101677.63;3553893;40;20101;-79
2021/06/26 09:47:26;;;;;;;3.80;0.80;;;;;;;17.71;60.21;101677.41;3575057;40;20064;-79
2021/06/26 09:50:21;;;;;;;1.98;0.85;;;;;;;17.75;61.09;101679.06;3554927;40;20732;-79
2021/06/26 09:52:51;;;;;;;2.13;0.63;;;;;;;17.69;60.25;101673.97;3569975;40;20049;-78
2021/06/26 09:55:29;;;;;;;2.42;0.50;;;;;;;17.75;60.28;101683.47;3558335;40;20077;-78
2021/06/26 09:58:07;;;;;;;1.55;0.68;;;;;;;17.73;60.42;101672.94;3571023;40;20079;-78
2021/06/26 10:00:42;;;;;;;1.23;0.60;;;;;;;17.73;59.86;101672.94;3575480;40;20071;-78
2021/06/26 10:03:15;;;;;;;3.60;0.70;;;;;;;17.66;59.70;101666.16;3571408;40;20606;-78
2021/06/26 10:05:47;;;;;;;1.13;0.43;;;;;;;17.75;60.46;101681.69;3569857;40;20089;-79
2021/06/26 10:08:19;;;;;;;0.47;0.40;;;;;;;17.76;60.31;101658.78;3569886;40;20068;-79
2021/06/26 10:10:47;;;;;;;4.72;0.38;;;;;;;17.82;59.31;101669.97;3566873;40;20049;-79
2021/06/26 10:13:14;;;;;;;1.23;0.50;;;;;;;17.90;60.13;101661.78;3561722;40;20390;-79
2021/06/26 10:15:46;;;;;;;1.47;0.40;;;;;;;18.06;60.21;101664.69;3577702;40;20077;-78
2021/06/26 10:18:14;;;;;;;2.28;0.68;;;;;;;18.14;59.43;101665.22;3553847;40;20380;-79
2021/06/26 10:20:48;;;;;;;1.25;0.60;;;;;;;18.28;59.14;101667.34;3563569;40;20073;-79
2021/06/26 10:23:21;;;;;;;1.50;0.50;;;;;;;18.37;58.99;101661.69;3570455;40;20093;-78
2021/06/26 10:25:49;;;;;;;2.13;0.60;;;;;;;18.40;57.39;101662.44;3573595;40;20057;-79
2021/06/26 10:28:22;;;;;;;2.80;0.80;;;;;;;18.47;58.02;101654.25;3568763;40;20064;-79
2021/06/26 10:31:10;;;;;;;1.70;0.60;;;;;;;18.60;59.26;101668.69;3577156;40;20093;-78
2021/06/26 10:33:38;;;;;;;2.00;0.52;;;;;;;18.53;56.94;101660.16;3565727;40;20114;-78
2021/06/26 10:36:06;;;;;;;;;;;;;;;18.74;59.55;101666.38;3573844;40;20049;-78
2021/06/26 10:38:44;;;;;;;3.13;0.65;;;;;;;18.76;58.41;101666.34;3567134;40;20302;-79
2021/06/26 10:41:20;;;;;;;3.08;0.65;;;;;;;18.79;57.81;101650.31;3570477;40;20093;-78
2021/06/26 10:44:00;;;;;;;2.33;1.20;;;;;;;18.85;57.46;101664.13;3563390;40;20061;-79
2021/06/26 10:46:28;;;;;;;1.88;0.93;;;;;;;18.78;56.25;101667.13;3553130;40;20070;-79
2021/06/26 10:49:05;;;;;;;2.10;0.90;;;;;;;18.79;57.21;101660.91;3572303;40;20444;-79
2021/06/26 10:51:37;;;;;;;1.30;0.80;;;;;;;18.80;57.22;101676.69;3564714;40;20056;-79
2021/06/26 10:54:19;;;;;;;4.78;0.63;;;;;;;18.84;57.56;101673.00;3576009;40;22637;-79
2021/06/26 10:56:48;;;;;;;2.78;0.70;;;;;;;18.84;56.53;101675.66;3565860;40;20109;-79
2021/06/26 10:59:20;;;;;;;2.90;0.70;;;;;;;18.85;56.61;101687.97;3571118;40;20041;-79
2021/06/26 11:01:59;;;;;;;1.58;0.77;;;;;;;18.87;57.11;101680.84;3568025;40;20142;-79
2021/06/26 11:04:44;;;;;;;1.88;0.65;;;;;;;18.86;57.04;101681.75;3564681;40;20057;-79
2021/06/26 11:07:16;;;;;;;2.88;0.70;;;;;;;18.82;56.80;101679.31;3570436;40;20073;-78
2021/06/26 11:09:48;;;;;;;1.42;0.60;;;;;;;18.88;55.88;101673.75;3575563;40;20064;-79
2021/06/26 11:12:17;;;;;;;1.40;0.60;;;;;;;18.84;56.35;101670.38;3569900;40;20060;-79
2021/06/26 11:14:57;;;;;;;1.75;0.50;;;;;;;19.01;56.44;101674.09;3571823;40;20064;-79
2021/06/26 11:17:36;;;;;;;1.77;0.82;;;;;;;19.13;56.48;101681.53;3555759;40;20099;-79
2021/06/26 11:20:09;;;;;;;3.50;0.70;;;;;;;19.13;54.74;101670.94;3564087;40;20332;-78
2021/06/26 11:22:37;;;;;;;1.58;0.57;;;;;;;19.10;55.29;101658.66;3558192;40;20100;-79
2021/06/26 11:25:10;;;;;;;1.73;0.50;;;;;;;19.26;55.92;101664.19;3570879;40;20049;-79
2021/06/26 11:27:37;;;;;;;0.60;0.50;;;;;;;19.17;55.41;101648.69;3563414;40;20057;-79
2021/06/26 11:30:07;;;;;;;1.77;0.50;;;;;;;19.40;56.24;101672.38;3578424;40;20078;-78
2021/06/26 11:32:35;;;;;;;1.13;0.55;;;;;;;19.32;55.19;101652.47;3575524;40;20402;-79
2021/06/26 11:35:12;;;;;;;2.55;0.70;;;;;;;19.60;55.23;101665.34;3571987;40;20337;-79
2021/06/26 11:37:45;;;;;;;1.83;0.70;;;;;;;19.66;55.14;101667.72;3558799;40;20287;-79
2021/06/26 11:40:15;;;;;;;2.05;0.60;;;;;;;19.78;54.87;101671.63;3566968;40;20057;-79
2021/06/26 11:42:58;;;;;;;2.70;0.80;;;;;;;19.90;55.40;101677.22;3544573;40;20082;-78